Franklin Grove, IL (61031)

9:33 AM CDT on September 04, 2015 (GMT -0500)
Lost Lake Ogle County, Illinois | | Change Station
CLOSE
Current Station
Personal Weather Station
Location: Dixon, IL
Elevation: 761 ft
Nearby Weather Stations

Elev 761 ft 41.91 °N, 89.35 °W | Updated 19 seconds ago

Clear
Clear
75.9 °F
Feels Like 76 °F
N
3.0
Wind Variable Wind from East
Gusts 5.0 mph

Today
High -- | Low -- °F
--% Chance of Precip.
Yesterday
High -- | Low -- °F
Precip. -- in
6:25 AM 7:25 PM
Waning Gibbous, 59% visible
Pressure 30.03 in
Visibility 7.0 miles
Clouds Clear
Heat Index 76 °F
Dew Point 71 °F
Humidity 85%
Rainfall 0.00 in
Snow Depth Not available.
UV 3 out of 12
Pollen 9.60 out of 12
Air Quality Not available.
Flu Activity Not available.
METAR KRPJ 041415Z AUTO 12003KT 7SM CLR 24/21 A3003 RMK AO2 T02360206
Pressure 30.03 in
Visibility 7.0 miles
Clouds Clear
Heat Index 76 °F
Dew Point 71 °F
Humidity 85%
Rainfall 0.00 in
Snow Depth Not available.
UV 3 out of 12
Pollen 9.60 out of 12
Air Quality Not available.
Flu Activity Not available.
METAR KRPJ 041415Z AUTO 12003KT 7SM CLR 24/21 A3003 RMK AO2 T02360206

10-Day Weather Forecast

×

Almanac

Astronomy

Sep. 04, 2015 Rise Set
Actual Time
Civil Twilight
Nautical Twilight
Astronomical Twilight
Moon
Length of Visible Light
Length of Day
Tomorrow will be .
, % of the Moon is Illuminated

Today's Extremes

State Highs State Lows

Community

WunderPhotos

Upload Photos

1,852,186 photos uploaded!

WunderBlogs® & News

Nearby

Air Quality

  Air Quality AQ Index Pollutant
Not available.

Snow Depth

Station Depth Elevation

Earthquake Activity

City Distance Mag. Time & Date
Minimum magnitude displayed is 2.5.

Coastal Water Temperatures

Place Temperature

Stations

Nearby Weather Stations

Station Location Temp. Windchill Dew Point Humidity Wind Precip. Elev Updated Type